sensor_id;sensor_type;location;lat;lon;timestamp;pressure;altitude;pressure_sealevel;temperature;humidity
71145;BME280;58812;47.698;17.726;2022-07-09T00:00:40;101043.75;;;15.89;65.03
71145;BME280;58812;47.698;17.726;2022-07-09T00:03:06;101049.63;;;15.85;65.29
71145;BME280;58812;47.698;17.726;2022-07-09T00:05:31;101047.25;;;15.82;65.20
71145;BME280;58812;47.698;17.726;2022-07-09T00:07:57;101054.66;;;15.80;65.07
71145;BME280;58812;47.698;17.726;2022-07-09T00:10:22;101058.69;;;15.75;64.97
71145;BME280;58812;47.698;17.726;2022-07-09T00:12:47;101057.34;;;15.71;65.31
71145;BME280;58812;47.698;17.726;2022-07-09T00:15:13;101046.69;;;15.70;65.16
71145;BME280;58812;47.698;17.726;2022-07-09T00:17:38;101052.25;;;15.68;65.33
71145;BME280;58812;47.698;17.726;2022-07-09T00:20:05;101045.78;;;15.61;65.58
71145;BME280;58812;47.698;17.726;2022-07-09T00:22:31;101043.78;;;15.63;65.50
71145;BME280;58812;47.698;17.726;2022-07-09T00:24:58;101038.69;;;15.60;65.72
71145;BME280;58812;47.698;17.726;2022-07-09T00:27:23;101041.53;;;15.59;65.44
71145;BME280;58812;47.698;17.726;2022-07-09T00:29:49;101046.72;;;15.52;65.60
71145;BME280;58812;47.698;17.726;2022-07-09T00:32:14;101053.16;;;15.59;65.65
71145;BME280;58812;47.698;17.726;2022-07-09T00:34:39;101055.53;;;15.54;65.54
71145;BME280;58812;47.698;17.726;2022-07-09T00:37:05;101048.06;;;15.48;65.87
71145;BME280;58812;47.698;17.726;2022-07-09T00:39:30;101033.50;;;15.41;65.86
71145;BME280;58812;47.698;17.726;2022-07-09T00:42:09;101045.12;;;15.41;66.09
71145;BME280;58812;47.698;17.726;2022-07-09T00:44:35;101032.44;;;15.34;66.63
71145;BME280;58812;47.698;17.726;2022-07-09T00:47:02;101034.25;;;15.25;66.72
71145;BME280;58812;47.698;17.726;2022-07-09T00:49:29;101038.25;;;15.21;67.08
71145;BME280;58812;47.698;17.726;2022-07-09T00:51:56;101030.63;;;15.16;67.05
71145;BME280;58812;47.698;17.726;2022-07-09T00:54:25;101021.84;;;15.14;67.32
71145;BME280;58812;47.698;17.726;2022-07-09T00:56:52;101032.28;;;15.09;67.80
71145;BME280;58812;47.698;17.726;2022-07-09T00:59:18;101034.75;;;15.03;67.71
71145;BME280;58812;47.698;17.726;2022-07-09T01:01:44;101027.84;;;15.00;68.03
71145;BME280;58812;47.698;17.726;2022-07-09T01:04:09;101035.59;;;15.03;67.65
71145;BME280;58812;47.698;17.726;2022-07-09T01:06:35;101036.69;;;14.92;68.46
71145;BME280;58812;47.698;17.726;2022-07-09T01:09:01;101034.31;;;14.89;68.53
71145;BME280;58812;47.698;17.726;2022-07-09T01:11:27;101032.38;;;14.82;68.62
71145;BME280;58812;47.698;17.726;2022-07-09T01:13:53;101042.09;;;14.75;68.91
71145;BME280;58812;47.698;17.726;2022-07-09T01:16:18;101034.31;;;14.72;69.22
71145;BME280;58812;47.698;17.726;2022-07-09T01:18:48;101029.22;;;14.68;69.43
71145;BME280;58812;47.698;17.726;2022-07-09T01:21:14;101029.56;;;14.65;69.70
71145;BME280;58812;47.698;17.726;2022-07-09T01:23:39;101031.88;;;14.60;69.83
71145;BME280;58812;47.698;17.726;2022-07-09T01:26:06;101028.78;;;14.55;69.81
71145;BME280;58812;47.698;17.726;2022-07-09T01:28:31;101023.84;;;14.51;69.99
71145;BME280;58812;47.698;17.726;2022-07-09T01:30:57;101022.56;;;14.45;70.32
71145;BME280;58812;47.698;17.726;2022-07-09T01:33:22;101013.47;;;14.46;70.19
71145;BME280;58812;47.698;17.726;2022-07-09T01:35:48;101018.81;;;14.38;70.48
71145;BME280;58812;47.698;17.726;2022-07-09T01:38:13;101015.09;;;14.39;70.63
71145;BME280;58812;47.698;17.726;2022-07-09T01:40:39;101009.31;;;14.34;70.77
71145;BME280;58812;47.698;17.726;2022-07-09T01:43:04;101017.16;;;14.27;70.99
71145;BME280;58812;47.698;17.726;2022-07-09T01:45:29;101014.31;;;14.29;71.07
71145;BME280;58812;47.698;17.726;2022-07-09T01:47:55;101012.34;;;14.31;71.05
71145;BME280;58812;47.698;17.726;2022-07-09T01:50:20;101012.94;;;14.25;71.08
71145;BME280;58812;47.698;17.726;2022-07-09T01:52:46;101008.00;;;14.20;71.20
71145;BME280;58812;47.698;17.726;2022-07-09T01:55:11;101009.53;;;14.23;71.14
71145;BME280;58812;47.698;17.726;2022-07-09T01:57:37;101009.53;;;14.23;71.19
71145;BME280;58812;47.698;17.726;2022-07-09T02:00:04;101013.25;;;14.22;70.90
71145;BME280;58812;47.698;17.726;2022-07-09T02:02:30;101012.94;;;14.25;70.70
71145;BME280;58812;47.698;17.726;2022-07-09T02:04:56;101006.84;;;14.23;70.68
71145;BME280;58812;47.698;17.726;2022-07-09T02:07:21;101013.09;;;14.23;70.82
71145;BME280;58812;47.698;17.726;2022-07-09T02:09:47;101017.63;;;14.23;70.82
71145;BME280;58812;47.698;17.726;2022-07-09T02:12:15;101019.03;;;14.27;70.75
71145;BME280;58812;47.698;17.726;2022-07-09T02:14:40;101022.31;;;14.21;71.03
71145;BME280;58812;47.698;17.726;2022-07-09T02:17:06;101018.94;;;14.19;71.00
71145;BME280;58812;47.698;17.726;2022-07-09T02:19:31;101010.09;;;14.26;70.51
71145;BME280;58812;47.698;17.726;2022-07-09T02:21:57;101016.31;;;14.27;70.49
71145;BME280;58812;47.698;17.726;2022-07-09T02:24:22;101017.50;;;14.24;71.04
71145;BME280;58812;47.698;17.726;2022-07-09T02:26:47;101010.72;;;14.20;70.95
71145;BME280;58812;47.698;17.726;2022-07-09T02:29:13;101016.13;;;14.10;71.15
71145;BME280;58812;47.698;17.726;2022-07-09T02:31:38;101016.69;;;14.14;71.13
71145;BME280;58812;47.698;17.726;2022-07-09T02:34:04;101011.06;;;14.07;71.48
71145;BME280;58812;47.698;17.726;2022-07-09T02:36:29;101003.75;;;14.00;72.04
71145;BME280;58812;47.698;17.726;2022-07-09T02:38:55;100996.53;;;14.00;71.72
71145;BME280;58812;47.698;17.726;2022-07-09T02:41:20;100997.81;;;13.96;72.14
71145;BME280;58812;47.698;17.726;2022-07-09T02:43:45;100997.56;;;13.89;72.32
71145;BME280;58812;47.698;17.726;2022-07-09T02:46:11;100990.09;;;13.83;72.56
71145;BME280;58812;47.698;17.726;2022-07-09T02:48:37;100996.50;;;13.82;72.96
71145;BME280;58812;47.698;17.726;2022-07-09T02:51:02;100994.06;;;13.79;73.20
71145;BME280;58812;47.698;17.726;2022-07-09T02:53:28;100988.00;;;13.77;73.06
71145;BME280;58812;47.698;17.726;2022-07-09T02:55:53;100992.38;;;13.78;73.21
71145;BME280;58812;47.698;17.726;2022-07-09T02:58:19;100994.41;;;13.76;73.74
71145;BME280;58812;47.698;17.726;2022-07-09T03:00:44;100990.84;;;13.76;73.54
71145;BME280;58812;47.698;17.726;2022-07-09T03:03:10;100983.63;;;13.76;73.52
71145;BME280;58812;47.698;17.726;2022-07-09T03:05:35;100994.69;;;13.73;73.62
71145;BME280;58812;47.698;17.726;2022-07-09T03:08:01;100984.50;;;13.67;74.02
71145;BME280;58812;47.698;17.726;2022-07-09T03:10:27;100991.47;;;13.70;73.95
71145;BME280;58812;47.698;17.726;2022-07-09T03:12:53;100996.69;;;13.71;73.81
71145;BME280;58812;47.698;17.726;2022-07-09T03:15:18;100991.12;;;13.73;73.81
71145;BME280;58812;47.698;17.726;2022-07-09T03:17:44;100998.12;;;13.66;74.36
71145;BME280;58812;47.698;17.726;2022-07-09T03:20:11;100996.53;;;13.73;74.01
71145;BME280;58812;47.698;17.726;2022-07-09T03:22:37;100997.09;;;13.76;73.70
71145;BME280;58812;47.698;17.726;2022-07-09T03:25:04;101001.31;;;13.79;73.57
71145;BME280;58812;47.698;17.726;2022-07-09T03:27:30;101005.00;;;13.78;73.89
71145;BME280;58812;47.698;17.726;2022-07-09T03:29:55;101003.31;;;13.77;74.06
71145;BME280;58812;47.698;17.726;2022-07-09T03:32:20;100998.78;;;13.77;73.93
71145;BME280;58812;47.698;17.726;2022-07-09T03:34:46;101004.44;;;13.74;73.96
71145;BME280;58812;47.698;17.726;2022-07-09T03:37:12;101005.59;;;13.72;74.33
71145;BME280;58812;47.698;17.726;2022-07-09T03:39:38;101002.75;;;13.73;74.48
71145;BME280;58812;47.698;17.726;2022-07-09T03:42:04;100996.84;;;13.70;74.23
71145;BME280;58812;47.698;17.726;2022-07-09T03:44:34;101007.59;;;13.70;74.48
71145;BME280;58812;47.698;17.726;2022-07-09T03:47:00;101004.19;;;13.68;74.59
71145;BME280;58812;47.698;17.726;2022-07-09T03:49:26;101004.75;;;13.71;74.55
71145;BME280;58812;47.698;17.726;2022-07-09T03:51:52;101003.91;;;13.71;75.06
71145;BME280;58812;47.698;17.726;2022-07-09T03:54:17;101010.81;;;13.73;74.84
71145;BME280;58812;47.698;17.726;2022-07-09T03:56:42;101003.00;;;13.80;74.53
71145;BME280;58812;47.698;17.726;2022-07-09T03:59:08;101021.16;;;13.78;74.81
71145;BME280;58812;47.698;17.726;2022-07-09T04:01:33;101012.87;;;13.89;74.62
71145;BME280;58812;47.698;17.726;2022-07-09T04:03:59;101001.78;;;13.92;74.35
71145;BME280;58812;47.698;17.726;2022-07-09T04:06:24;101005.50;;;13.91;74.55
71145;BME280;58812;47.698;17.726;2022-07-09T04:08:50;101013.97;;;13.96;74.77
71145;BME280;58812;47.698;17.726;2022-07-09T04:11:15;101014.53;;;14.00;74.57
71145;BME280;58812;47.698;17.726;2022-07-09T04:13:41;101015.00;;;14.13;74.09
71145;BME280;58812;47.698;17.726;2022-07-09T04:16:06;101011.16;;;14.15;74.26
71145;BME280;58812;47.698;17.726;2022-07-09T04:18:33;101010.88;;;14.19;74.01
71145;BME280;58812;47.698;17.726;2022-07-09T04:20:59;101008.34;;;14.35;73.68
71145;BME280;58812;47.698;17.726;2022-07-09T04:23:24;101011.38;;;14.50;73.29
71145;BME280;58812;47.698;17.726;2022-07-09T04:25:50;101004.47;;;14.65;72.48
71145;BME280;58812;47.698;17.726;2022-07-09T04:28:17;101006.87;;;14.76;72.11
71145;BME280;58812;47.698;17.726;2022-07-09T04:30:44;101010.94;;;14.98;71.24
71145;BME280;58812;47.698;17.726;2022-07-09T04:33:09;101002.25;;;15.30;70.04
71145;BME280;58812;47.698;17.726;2022-07-09T04:35:35;101003.66;;;15.16;70.58
71145;BME280;58812;47.698;17.726;2022-07-09T04:38:01;101005.47;;;15.34;69.71
71145;BME280;58812;47.698;17.726;2022-07-09T04:40:26;101001.22;;;15.57;69.05
71145;BME280;58812;47.698;17.726;2022-07-09T04:42:52;100991.97;;;15.60;68.35
71145;BME280;58812;47.698;17.726;2022-07-09T04:45:17;100999.09;;;15.69;68.73
71145;BME280;58812;47.698;17.726;2022-07-09T04:47:43;100999.94;;;16.12;67.21
71145;BME280;58812;47.698;17.726;2022-07-09T04:50:08;101009.28;;;16.34;65.87
71145;BME280;58812;47.698;17.726;2022-07-09T04:52:34;101009.47;;;16.56;65.59
71145;BME280;58812;47.698;17.726;2022-07-09T04:55:00;101009.66;;;16.63;65.33
71145;BME280;58812;47.698;17.726;2022-07-09T04:57:25;101011.03;;;16.67;65.07
71145;BME280;58812;47.698;17.726;2022-07-09T04:59:51;100997.16;;;16.62;64.84
71145;BME280;58812;47.698;17.726;2022-07-09T05:02:16;101014.38;;;16.69;65.43
71145;BME280;58812;47.698;17.726;2022-07-09T05:04:41;101012.56;;;16.94;64.33
71145;BME280;58812;47.698;17.726;2022-07-09T05:07:07;101007.66;;;17.06;63.41
71145;BME280;58812;47.698;17.726;2022-07-09T05:09:32;101008.34;;;16.83;64.06
71145;BME280;58812;47.698;17.726;2022-07-09T05:11:59;101008.12;;;17.34;62.91
71145;BME280;58812;47.698;17.726;2022-07-09T05:14:24;101014.91;;;17.22;61.78
71145;BME280;58812;47.698;17.726;2022-07-09T05:16:49;101009.47;;;17.38;63.17
71145;BME280;58812;47.698;17.726;2022-07-09T05:19:15;101010.34;;;17.22;62.91
71145;BME280;58812;47.698;17.726;2022-07-09T05:21:40;101002.47;;;17.60;62.43
71145;BME280;58812;47.698;17.726;2022-07-09T05:24:07;101017.31;;;17.80;61.80
71145;BME280;58812;47.698;17.726;2022-07-09T05:26:33;101008.81;;;17.92;61.50
71145;BME280;58812;47.698;17.726;2022-07-09T05:28:59;101003.22;;;17.93;60.48
71145;BME280;58812;47.698;17.726;2022-07-09T05:31:24;101017.66;;;17.85;60.61
71145;BME280;58812;47.698;17.726;2022-07-09T05:33:50;101009.69;;;17.84;60.44
71145;BME280;58812;47.698;17.726;2022-07-09T05:36:17;101012.06;;;18.18;59.80
71145;BME280;58812;47.698;17.726;2022-07-09T05:38:43;101012.12;;;18.10;59.52
71145;BME280;58812;47.698;17.726;2022-07-09T05:41:08;101013.63;;;18.12;59.29
71145;BME280;58812;47.698;17.726;2022-07-09T05:43:35;101009.09;;;18.05;59.79
71145;BME280;58812;47.698;17.726;2022-07-09T05:46:00;101005.97;;;18.16;59.05
71145;BME280;58812;47.698;17.726;2022-07-09T05:48:26;101016.19;;;18.60;57.90
71145;BME280;58812;47.698;17.726;2022-07-09T05:50:52;101019.25;;;18.88;56.86
71145;BME280;58812;47.698;17.726;2022-07-09T05:53:17;101017.34;;;18.65;56.62
71145;BME280;58812;47.698;17.726;2022-07-09T05:55:42;101025.88;;;19.38;55.49
71145;BME280;58812;47.698;17.726;2022-07-09T05:58:08;101016.44;;;19.48;55.04
71145;BME280;58812;47.698;17.726;2022-07-09T06:00:33;101019.84;;;18.75;55.91
71145;BME280;58812;47.698;17.726;2022-07-09T06:02:59;101023.34;;;19.21;54.82
71145;BME280;58812;47.698;17.726;2022-07-09T06:05:24;101022.06;;;18.94;55.46
71145;BME280;58812;47.698;17.726;2022-07-09T06:07:49;101024.59;;;19.34;54.53
71145;BME280;58812;47.698;17.726;2022-07-09T06:10:15;101014.41;;;18.98;55.16
71145;BME280;58812;47.698;17.726;2022-07-09T06:12:42;101020.91;;;19.12;54.75
71145;BME280;58812;47.698;17.726;2022-07-09T06:15:10;101017.84;;;19.44;54.12
71145;BME280;58812;47.698;17.726;2022-07-09T06:17:35;101021.03;;;20.22;52.59
71145;BME280;58812;47.698;17.726;2022-07-09T06:20:01;101020.56;;;19.44;53.25
71145;BME280;58812;47.698;17.726;2022-07-09T06:22:26;101022.28;;;20.05;52.33
71145;BME280;58812;47.698;17.726;2022-07-09T06:24:52;101017.25;;;20.23;52.14
71145;BME280;58812;47.698;17.726;2022-07-09T06:27:17;101016.81;;;20.56;51.27
71145;BME280;58812;47.698;17.726;2022-07-09T06:29:42;101014.66;;;20.72;50.67
71145;BME280;58812;47.698;17.726;2022-07-09T06:32:08;101012.53;;;19.95;51.71
71145;BME280;58812;47.698;17.726;2022-07-09T06:34:33;100999.97;;;20.31;51.33
71145;BME280;58812;47.698;17.726;2022-07-09T06:36:59;101009.13;;;20.44;51.01
71145;BME280;58812;47.698;17.726;2022-07-09T06:39:24;101007.81;;;21.04;49.80
71145;BME280;58812;47.698;17.726;2022-07-09T06:42:09;101013.28;;;21.04;49.94
71145;BME280;58812;47.698;17.726;2022-07-09T06:44:34;101006.56;;;21.00;49.45
71145;BME280;58812;47.698;17.726;2022-07-09T06:47:00;101011.34;;;20.98;49.52
71145;BME280;58812;47.698;17.726;2022-07-09T06:49:25;101001.94;;;21.01;48.92
71145;BME280;58812;47.698;17.726;2022-07-09T06:51:51;101008.50;;;21.34;48.60
71145;BME280;58812;47.698;17.726;2022-07-09T06:54:16;101011.94;;;21.43;48.10
71145;BME280;58812;47.698;17.726;2022-07-09T06:56:41;101013.00;;;21.21;49.00
71145;BME280;58812;47.698;17.726;2022-07-09T06:59:07;101001.50;;;20.97;48.99
71145;BME280;58812;47.698;17.726;2022-07-09T07:01:32;101005.59;;;21.36;47.95
71145;BME280;58812;47.698;17.726;2022-07-09T07:03:58;101002.97;;;21.49;48.02
71145;BME280;58812;47.698;17.726;2022-07-09T07:06:23;101006.91;;;22.29;46.65
71145;BME280;58812;47.698;17.726;2022-07-09T07:08:48;101009.34;;;23.05;45.31
71145;BME280;58812;47.698;17.726;2022-07-09T07:11:14;101013.78;;;21.71;46.85
71145;BME280;58812;47.698;17.726;2022-07-09T07:13:39;101007.56;;;21.83;47.10
71145;BME280;58812;47.698;17.726;2022-07-09T07:16:05;101013.63;;;22.27;46.22
71145;BME280;58812;47.698;17.726;2022-07-09T07:18:31;100999.94;;;22.13;46.15
71145;BME280;58812;47.698;17.726;2022-07-09T07:20:56;101006.47;;;22.12;46.07
71145;BME280;58812;47.698;17.726;2022-07-09T07:23:21;101003.97;;;22.18;45.93
71145;BME280;58812;47.698;17.726;2022-07-09T07:25:47;101003.59;;;22.47;45.04
71145;BME280;58812;47.698;17.726;2022-07-09T07:28:13;100997.94;;;22.49;45.23
71145;BME280;58812;47.698;17.726;2022-07-09T07:30:38;100997.38;;;22.93;45.25
71145;BME280;58812;47.698;17.726;2022-07-09T07:33:04;101003.88;;;23.45;44.93
71145;BME280;58812;47.698;17.726;2022-07-09T07:35:29;100992.13;;;23.05;45.24
71145;BME280;58812;47.698;17.726;2022-07-09T07:37:55;100993.97;;;22.58;45.93
71145;BME280;58812;47.698;17.726;2022-07-09T07:40:22;100994.47;;;23.01;45.34
71145;BME280;58812;47.698;17.726;2022-07-09T07:42:47;100994.88;;;21.69;45.91
71145;BME280;58812;47.698;17.726;2022-07-09T07:45:13;100999.41;;;22.51;45.35
71145;BME280;58812;47.698;17.726;2022-07-09T07:47:38;100997.41;;;23.13;43.83
71145;BME280;58812;47.698;17.726;2022-07-09T07:50:04;101002.59;;;23.41;43.08
71145;BME280;58812;47.698;17.726;2022-07-09T07:52:30;100998.44;;;23.05;43.15
71145;BME280;58812;47.698;17.726;2022-07-09T07:54:55;100986.88;;;23.03;43.31
71145;BME280;58812;47.698;17.726;2022-07-09T07:57:21;100992.72;;;22.74;43.68
71145;BME280;58812;47.698;17.726;2022-07-09T07:59:46;100990.19;;;23.45;42.28
71145;BME280;58812;47.698;17.726;2022-07-09T08:02:12;100989.28;;;23.78;41.86
71145;BME280;58812;47.698;17.726;2022-07-09T08:04:37;100997.81;;;23.16;43.22
71145;BME280;58812;47.698;17.726;2022-07-09T08:07:03;100991.47;;;23.49;42.26
71145;BME280;58812;47.698;17.726;2022-07-09T08:09:28;100992.59;;;23.93;41.55
71145;BME280;58812;47.698;17.726;2022-07-09T08:11:54;100988.28;;;23.52;41.91
71145;BME280;58812;47.698;17.726;2022-07-09T08:14:19;100989.09;;;24.24;41.62
71145;BME280;58812;47.698;17.726;2022-07-09T08:16:45;100992.19;;;24.41;40.76
71145;BME280;58812;47.698;17.726;2022-07-09T08:19:10;100994.66;;;23.19;43.49
71145;BME280;58812;47.698;17.726;2022-07-09T08:21:36;100989.31;;;23.58;42.62
71145;BME280;58812;47.698;17.726;2022-07-09T08:24:02;100982.34;;;24.27;40.93
71145;BME280;58812;47.698;17.726;2022-07-09T08:26:29;100975.28;;;23.41;42.27
71145;BME280;58812;47.698;17.726;2022-07-09T08:28:56;100980.31;;;24.15;40.29
71145;BME280;58812;47.698;17.726;2022-07-09T08:31:22;100972.53;;;23.48;42.04
71145;BME280;58812;47.698;17.726;2022-07-09T08:33:47;100982.78;;;23.59;41.82
71145;BME280;58812;47.698;17.726;2022-07-09T08:36:13;100973.28;;;23.81;41.72
71145;BME280;58812;47.698;17.726;2022-07-09T08:38:39;100958.91;;;24.44;41.01
71145;BME280;58812;47.698;17.726;2022-07-09T08:41:05;100965.19;;;24.06;40.91
71145;BME280;58812;47.698;17.726;2022-07-09T08:43:36;100962.31;;;24.39;40.74
71145;BME280;58812;47.698;17.726;2022-07-09T08:46:02;100963.63;;;24.62;40.03
71145;BME280;58812;47.698;17.726;2022-07-09T08:48:29;100964.22;;;25.39;38.76
71145;BME280;58812;47.698;17.726;2022-07-09T08:50:58;100965.75;;;25.71;38.06
71145;BME280;58812;47.698;17.726;2022-07-09T08:53:24;100957.22;;;25.98;37.81
71145;BME280;58812;47.698;17.726;2022-07-09T08:55:53;100962.87;;;23.45;41.95
71145;BME280;58812;47.698;17.726;2022-07-09T08:58:19;100964.78;;;23.38;41.49
71145;BME280;58812;47.698;17.726;2022-07-09T09:00:45;100962.03;;;24.79;39.06
71145;BME280;58812;47.698;17.726;2022-07-09T09:03:13;100972.44;;;25.39;37.77
71145;BME280;58812;47.698;17.726;2022-07-09T09:05:38;100962.50;;;24.94;38.02
71145;BME280;58812;47.698;17.726;2022-07-09T09:08:20;100966.06;;;26.00;36.94
71145;BME280;58812;47.698;17.726;2022-07-09T09:10:47;100975.03;;;25.52;36.89
71145;BME280;58812;47.698;17.726;2022-07-09T09:13:14;100954.44;;;24.99;37.94
71145;BME280;58812;47.698;17.726;2022-07-09T09:15:41;100959.50;;;25.02;37.40
71145;BME280;58812;47.698;17.726;2022-07-09T09:18:07;100960.88;;;24.87;37.36
71145;BME280;58812;47.698;17.726;2022-07-09T09:20:34;100961.41;;;25.27;36.66
71145;BME280;58812;47.698;17.726;2022-07-09T09:22:59;100952.09;;;26.01;35.14
71145;BME280;58812;47.698;17.726;2022-07-09T09:25:25;100942.31;;;24.89;37.23
71145;BME280;58812;47.698;17.726;2022-07-09T09:27:52;100961.16;;;23.57;41.29
71145;BME280;58812;47.698;17.726;2022-07-09T09:30:17;100948.84;;;23.15;42.90
71145;BME280;58812;47.698;17.726;2022-07-09T09:32:43;100940.25;;;23.83;42.55
71145;BME280;58812;47.698;17.726;2022-07-09T09:35:08;100937.91;;;24.63;40.22
71145;BME280;58812;47.698;17.726;2022-07-09T09:37:34;100934.84;;;24.77;39.16
71145;BME280;58812;47.698;17.726;2022-07-09T09:40:08;100941.25;;;24.65;39.50
71145;BME280;58812;47.698;17.726;2022-07-09T09:42:35;100928.91;;;24.81;38.87
71145;BME280;58812;47.698;17.726;2022-07-09T09:45:04;100944.09;;;24.51;39.09
71145;BME280;58812;47.698;17.726;2022-07-09T09:47:30;100939.38;;;23.17;40.06
71145;BME280;58812;47.698;17.726;2022-07-09T09:49:57;100942.47;;;24.06;39.07
71145;BME280;58812;47.698;17.726;2022-07-09T09:52:26;100928.41;;;25.15;37.40
71145;BME280;58812;47.698;17.726;2022-07-09T09:54:52;100934.06;;;25.57;37.03
71145;BME280;58812;47.698;17.726;2022-07-09T09:57:17;100920.94;;;23.84;39.26
71145;BME280;58812;47.698;17.726;2022-07-09T09:59:44;100922.63;;;23.79;39.88
71145;BME280;58812;47.698;17.726;2022-07-09T10:02:13;100925.06;;;23.93;39.37
71145;BME280;58812;47.698;17.726;2022-07-09T10:04:43;100934.50;;;24.92;36.99
71145;BME280;58812;47.698;17.726;2022-07-09T10:07:11;100925.13;;;24.82;36.18
71145;BME280;58812;47.698;17.726;2022-07-09T10:09:36;100920.25;;;24.84;37.10
71145;BME280;58812;47.698;17.726;2022-07-09T10:12:02;100926.13;;;24.62;38.43
71145;BME280;58812;47.698;17.726;2022-07-09T10:14:36;100925.00;;;24.45;38.99
71145;BME280;58812;47.698;17.726;2022-07-09T10:17:10;100923.91;;;24.96;37.60
71145;BME280;58812;47.698;17.726;2022-07-09T10:19:36;100911.19;;;24.58;38.20
71145;BME280;58812;47.698;17.726;2022-07-09T10:22:02;100914.00;;;25.20;37.52
71145;BME280;58812;47.698;17.726;2022-07-09T10:24:32;100918.72;;;25.74;36.41
71145;BME280;58812;47.698;17.726;2022-07-09T10:27:17;100926.72;;;24.39;36.50
71145;BME280;58812;47.698;17.726;2022-07-09T10:29:59;100918.00;;;25.24;35.49
71145;BME280;58812;47.698;17.726;2022-07-09T10:32:29;100913.53;;;24.55;36.48
71145;BME280;58812;47.698;17.726;2022-07-09T10:35:04;100910.91;;;25.53;35.51
71145;BME280;58812;47.698;17.726;2022-07-09T10:37:35;100895.13;;;25.67;34.28
71145;BME280;58812;47.698;17.726;2022-07-09T10:40:13;100900.03;;;25.46;34.63
71145;BME280;58812;47.698;17.726;2022-07-09T10:42:41;100899.22;;;24.77;36.50
71145;BME280;58812;47.698;17.726;2022-07-09T10:48:03;100888.69;;;24.56;36.51
71145;BME280;58812;47.698;17.726;2022-07-09T10:50:31;100889.69;;;24.87;35.54
71145;BME280;58812;47.698;17.726;2022-07-09T10:52:58;100889.19;;;25.88;34.29
71145;BME280;58812;47.698;17.726;2022-07-09T10:55:25;100888.50;;;25.38;34.70
71145;BME280;58812;47.698;17.726;2022-07-09T10:57:52;100877.22;;;26.13;33.70
71145;BME280;58812;47.698;17.726;2022-07-09T11:00:19;100890.16;;;25.94;32.84
71145;BME280;58812;47.698;17.726;2022-07-09T11:02:56;100879.50;;;26.57;32.86
71145;BME280;58812;47.698;17.726;2022-07-09T11:05:26;100879.12;;;26.66;32.06
71145;BME280;58812;47.698;17.726;2022-07-09T11:10:20;100872.09;;;24.76;36.74
71145;BME280;58812;47.698;17.726;2022-07-09T11:12:49;100873.22;;;23.74;38.17
71145;BME280;58812;47.698;17.726;2022-07-09T11:15:19;100867.81;;;25.23;35.61
71145;BME280;58812;47.698;17.726;2022-07-09T11:17:54;100864.31;;;25.35;35.58
71145;BME280;58812;47.698;17.726;2022-07-09T11:20:20;100866.47;;;25.33;35.48
71145;BME280;58812;47.698;17.726;2022-07-09T11:22:48;100860.06;;;25.39;35.30
71145;BME280;58812;47.698;17.726;2022-07-09T11:25:15;100858.84;;;25.16;35.88
71145;BME280;58812;47.698;17.726;2022-07-09T11:27:41;100858.22;;;25.51;35.73
71145;BME280;58812;47.698;17.726;2022-07-09T11:30:10;100843.44;;;24.78;35.00
71145;BME280;58812;47.698;17.726;2022-07-09T11:32:36;100842.66;;;24.90;35.31
71145;BME280;58812;47.698;17.726;2022-07-09T11:35:02;100834.19;;;25.16;34.15
71145;BME280;58812;47.698;17.726;2022-07-09T11:37:27;100831.44;;;26.36;33.54
71145;BME280;58812;47.698;17.726;2022-07-09T11:39:53;100833.84;;;25.43;33.04
71145;BME280;58812;47.698;17.726;2022-07-09T11:42:19;100824.66;;;24.57;34.83
71145;BME280;58812;47.698;17.726;2022-07-09T11:44:59;100823.50;;;24.46;34.48
71145;BME280;58812;47.698;17.726;2022-07-09T11:47:36;100819.78;;;25.88;32.92
71145;BME280;58812;47.698;17.726;2022-07-09T11:50:06;100825.72;;;25.84;32.36
71145;BME280;58812;47.698;17.726;2022-07-09T11:52:32;100810.00;;;25.92;32.10
71145;BME280;58812;47.698;17.726;2022-07-09T11:55:08;100815.12;;;26.65;31.22
71145;BME280;58812;47.698;17.726;2022-07-09T11:57:35;100811.75;;;26.98;30.25
71145;BME280;58812;47.698;17.726;2022-07-09T12:00:04;100797.53;;;27.13;30.20
71145;BME280;58812;47.698;17.726;2022-07-09T12:02:34;100793.16;;;27.69;29.23
71145;BME280;58812;47.698;17.726;2022-07-09T12:05:03;100786.53;;;27.99;29.12
71145;BME280;58812;47.698;17.726;2022-07-09T12:07:30;100780.69;;;26.98;29.43
71145;BME280;58812;47.698;17.726;2022-07-09T12:10:09;100784.47;;;26.45;28.47
71145;BME280;58812;47.698;17.726;2022-07-09T12:12:36;100769.13;;;26.14;29.39
71145;BME280;58812;47.698;17.726;2022-07-09T12:15:04;100769.19;;;25.83;29.69
71145;BME280;58812;47.698;17.726;2022-07-09T12:17:31;100765.03;;;25.93;29.92
71145;BME280;58812;47.698;17.726;2022-07-09T12:19:57;100760.50;;;25.87;30.11
71145;BME280;58812;47.698;17.726;2022-07-09T12:22:24;100745.41;;;26.54;29.44
71145;BME280;58812;47.698;17.726;2022-07-09T12:24:51;100750.69;;;27.65;28.95
71145;BME280;58812;47.698;17.726;2022-07-09T12:27:17;100750.47;;;27.38;29.60
71145;BME280;58812;47.698;17.726;2022-07-09T12:29:42;100738.69;;;26.62;28.63
71145;BME280;58812;47.698;17.726;2022-07-09T12:32:08;100747.69;;;26.46;29.58
71145;BME280;58812;47.698;17.726;2022-07-09T12:34:34;100736.75;;;26.86;28.68
71145;BME280;58812;47.698;17.726;2022-07-09T12:36:59;100741.44;;;27.54;28.87
71145;BME280;58812;47.698;17.726;2022-07-09T12:39:25;100744.84;;;27.61;28.88
71145;BME280;58812;47.698;17.726;2022-07-09T12:41:50;100739.34;;;27.61;28.64